Fort Carson, Colorado
Current Conditions -  °F | °C
As of 1:58 PM on Sunday 23 Nov 2014 (Local Time) from KFCS Reporting Station
Unknown Precip Unknown Precip  
Wind Chill: 29°   Ceiling: 4400
Heat Index: 36°   Visibility: 10mi
Dew Point: 25°   Wind: 8mph
Humidity: 64%   Direction: 340°NNW
Pressure: 29.78"   Gusts: NA
Location:  38.74°N, 104.77°W
Report Text: KFCS 232058Z AUTO 34007KT 290V030 10SM UP SCT033 OVC044 02/M04 A2978 RMK AO2 UPB2052 SLP100 P0000 60000 T00211041 53001
Loading
Personal Weather Stations






























Interactive Weather Map New forecast layout! Learn more

10-Day Weather Forecast

Advertisements
Track Severe Weather on mobile